createdAt,value
2023-05-16T00:01:02.659Z,18.58
2023-05-16T00:03:50.287Z,18.57
2023-05-16T00:06:38.943Z,18.52
2023-05-16T00:09:29.175Z,18.51
2023-05-16T00:12:18.099Z,18.56
2023-05-16T00:15:08.975Z,18.57
2023-05-16T00:18:00.038Z,18.57
2023-05-16T00:20:53.241Z,18.43
2023-05-16T00:23:41.194Z,18.38
2023-05-16T00:26:29.216Z,18.24
2023-05-16T00:29:17.820Z,18.18
2023-05-16T00:32:08.938Z,18.09
2023-05-16T00:34:57.024Z,18.12
2023-05-16T00:37:45.039Z,18.09
2023-05-16T00:40:33.115Z,18.00
2023-05-16T00:43:20.851Z,17.96
2023-05-16T00:46:11.957Z,18.00
2023-05-16T00:49:00.353Z,18.00
2023-05-16T00:51:49.631Z,18.02
2023-05-16T00:54:39.159Z,17.96
2023-05-16T00:57:27.828Z,17.93
2023-05-16T01:00:17.883Z,17.92
2023-05-16T01:03:06.612Z,17.95
2023-05-16T01:05:54.766Z,17.99
2023-05-16T01:08:43.158Z,18.09
2023-05-16T01:12:07.692Z,18.13
2023-05-16T01:15:20.216Z,18.14
2023-05-16T01:18:43.482Z,18.15
2023-05-16T01:21:53.207Z,18.14
2023-05-16T01:25:20.449Z,18.13
2023-05-16T01:28:10.395Z,18.05
2023-05-16T01:30:58.648Z,17.99
2023-05-16T01:33:47.958Z,17.91
2023-05-16T01:37:12.033Z,17.86
2023-05-16T01:40:09.894Z,17.82
2023-05-16T01:43:02.093Z,17.75
2023-05-16T01:46:25.957Z,17.74
2023-05-16T01:49:27.140Z,17.68
2023-05-16T01:52:39.263Z,17.66
2023-05-16T01:55:41.964Z,17.65
2023-05-16T01:58:34.661Z,17.66
2023-05-16T02:01:23.288Z,17.69
2023-05-16T02:04:11.750Z,17.61
2023-05-16T02:07:01.243Z,17.53
2023-05-16T02:09:49.705Z,17.51
2023-05-16T02:12:37.752Z,17.50
2023-05-16T02:15:26.477Z,17.57
2023-05-16T02:18:14.860Z,17.63
2023-05-16T02:21:04.597Z,17.63
2023-05-16T02:23:52.421Z,17.65
2023-05-16T02:26:40.503Z,17.62
2023-05-16T02:29:28.332Z,17.51
2023-05-16T02:32:16.392Z,17.50
2023-05-16T02:35:05.257Z,17.52
2023-05-16T02:37:52.997Z,17.46
2023-05-16T02:40:41.335Z,17.30
2023-05-16T02:43:29.129Z,17.22
2023-05-16T02:46:49.013Z,17.11
2023-05-16T02:49:37.862Z,16.95
2023-05-16T02:52:26.356Z,17.02
2023-05-16T02:58:05.446Z,17.16
2023-05-16T03:00:53.472Z,17.22
2023-05-16T03:03:43.103Z,17.27
2023-05-16T03:06:31.629Z,17.40
2023-05-16T03:09:21.917Z,17.52
2023-05-16T03:12:10.297Z,17.61
2023-05-16T03:14:58.926Z,17.67
2023-05-16T03:17:47.311Z,17.50
2023-05-16T03:20:36.220Z,17.44
2023-05-16T03:23:25.108Z,17.36
2023-05-16T03:26:18.121Z,17.37
2023-05-16T03:29:06.626Z,17.31
2023-05-16T03:31:55.362Z,17.25
2023-05-16T03:34:43.730Z,17.33
2023-05-16T03:37:32.035Z,17.28
2023-05-16T03:40:20.076Z,17.29
2023-05-16T03:43:09.737Z,17.39
2023-05-16T03:45:57.891Z,17.31
2023-05-16T03:48:46.589Z,17.33
2023-05-16T03:51:34.547Z,17.26
2023-05-16T03:54:23.137Z,17.20
2023-05-16T03:57:11.151Z,17.15
2023-05-16T03:59:59.806Z,17.05
2023-05-16T04:02:48.257Z,17.01
2023-05-16T04:05:36.641Z,17.03
2023-05-16T04:08:25.926Z,17.03
2023-05-16T04:11:16.208Z,17.06
2023-05-16T04:14:04.715Z,17.07
2023-05-16T04:16:53.400Z,16.81
2023-05-16T04:19:41.272Z,16.62
2023-05-16T04:22:30.412Z,16.63
2023-05-16T04:25:24.711Z,16.78
2023-05-16T04:28:13.659Z,16.81
2023-05-16T04:31:02.185Z,16.85
2023-05-16T04:33:50.467Z,16.84
2023-05-16T04:36:39.473Z,16.86
2023-05-16T04:39:28.221Z,16.99
2023-05-16T04:42:17.765Z,17.08
2023-05-16T04:45:06.922Z,17.14
2023-05-16T04:47:55.598Z,17.02
2023-05-16T04:50:48.287Z,16.90
2023-05-16T04:53:36.133Z,16.93
2023-05-16T04:56:23.982Z,16.90
2023-05-16T04:59:13.912Z,16.90
2023-05-16T05:02:04.431Z,16.72
2023-05-16T05:04:52.815Z,16.68
2023-05-16T05:07:41.069Z,16.72
2023-05-16T05:10:28.783Z,16.82
2023-05-16T05:13:17.289Z,16.92
2023-05-16T05:16:07.025Z,17.01
2023-05-16T05:18:56.428Z,17.13
2023-05-16T05:21:45.520Z,17.11
2023-05-16T05:24:33.310Z,17.15
2023-05-16T05:27:21.588Z,17.07
2023-05-16T05:30:09.954Z,17.05
2023-05-16T05:32:57.693Z,17.06
2023-05-16T05:35:46.146Z,17.12
2023-05-16T05:38:34.210Z,17.06
2023-05-16T05:41:22.768Z,16.98
2023-05-16T05:44:10.997Z,17.06
2023-05-16T05:46:59.638Z,17.12
2023-05-16T05:49:49.312Z,17.14
2023-05-16T05:52:39.440Z,17.20
2023-05-16T05:55:28.145Z,17.25
2023-05-16T05:58:16.395Z,17.31
2023-05-16T06:01:04.743Z,17.51
2023-05-16T06:03:52.971Z,17.45
2023-05-16T06:06:41.812Z,16.44
2023-05-16T06:09:31.068Z,16.24
2023-05-16T06:12:19.380Z,16.89
2023-05-16T06:15:08.779Z,17.15
2023-05-16T06:17:56.710Z,17.28
2023-05-16T06:20:46.312Z,17.37
2023-05-16T06:23:37.564Z,17.40
2023-05-16T06:26:26.001Z,17.43
2023-05-16T06:29:14.964Z,17.43
2023-05-16T06:32:07.695Z,17.38
2023-05-16T06:34:56.160Z,17.34
2023-05-16T06:37:44.414Z,17.24
2023-05-16T06:40:32.550Z,17.27
2023-05-16T06:43:20.912Z,17.21
2023-05-16T06:46:09.360Z,17.14
2023-05-16T06:48:57.814Z,17.27
2023-05-16T06:51:46.489Z,17.28
2023-05-16T06:54:35.330Z,17.26
2023-05-16T06:57:24.224Z,16.44
2023-05-16T07:00:13.224Z,15.61
2023-05-16T07:03:02.135Z,15.99
2023-05-16T07:05:53.241Z,16.57
2023-05-16T07:08:41.878Z,16.89
2023-05-16T07:11:32.526Z,17.09
2023-05-16T07:14:20.413Z,17.35
2023-05-16T07:17:11.975Z,16.99
2023-05-16T07:20:01.728Z,15.82
2023-05-16T07:22:50.990Z,16.14
2023-05-16T07:25:39.283Z,16.69
2023-05-16T07:28:27.185Z,16.84
2023-05-16T07:31:17.172Z,16.96
2023-05-16T07:34:05.380Z,16.98
2023-05-16T07:36:54.185Z,17.07
2023-05-16T07:39:43.540Z,17.22
2023-05-16T07:42:32.166Z,16.49
2023-05-16T07:45:19.968Z,15.92
2023-05-16T07:48:08.283Z,16.52
2023-05-16T07:50:56.782Z,16.92
2023-05-16T07:53:45.917Z,17.14
2023-05-16T07:56:34.276Z,17.30
2023-05-16T07:59:22.426Z,17.34
2023-05-16T08:02:11.714Z,17.33
2023-05-16T08:05:00.596Z,17.46
2023-05-16T08:07:48.998Z,17.38
2023-05-16T08:10:37.129Z,17.30
2023-05-16T08:13:25.550Z,17.24
2023-05-16T08:16:14.360Z,17.26
2023-05-16T08:19:02.683Z,17.31
2023-05-16T08:21:52.251Z,17.32
2023-05-16T08:24:40.393Z,17.35
2023-05-16T08:27:29.090Z,17.41
2023-05-16T08:30:17.901Z,17.46
2023-05-16T08:33:06.978Z,17.43
2023-05-16T08:35:55.310Z,17.36
2023-05-16T08:38:46.267Z,17.46
2023-05-16T08:41:34.611Z,17.53
2023-05-16T08:44:22.735Z,17.38
2023-05-16T08:47:25.041Z,17.40
2023-05-16T08:50:16.910Z,17.36
2023-05-16T08:53:08.570Z,17.45
2023-05-16T08:55:58.117Z,17.37
2023-05-16T08:58:47.069Z,17.54
2023-05-16T09:01:36.198Z,17.63
2023-05-16T09:04:26.297Z,17.49
2023-05-16T09:07:14.562Z,16.48
2023-05-16T09:10:03.744Z,15.79
2023-05-16T09:12:52.033Z,16.30
2023-05-16T09:15:40.205Z,16.83
2023-05-16T09:18:28.956Z,17.45
2023-05-16T09:21:17.360Z,17.98
2023-05-16T09:24:09.133Z,18.16
2023-05-16T09:26:57.154Z,17.49
2023-05-16T09:29:51.156Z,17.29
2023-05-16T09:32:44.149Z,17.80
2023-05-16T09:38:27.343Z,18.08
2023-05-16T09:41:15.454Z,18.22
2023-05-16T09:44:07.732Z,18.33
2023-05-16T09:46:56.399Z,18.41
2023-05-16T09:49:50.187Z,17.74
2023-05-16T09:52:39.862Z,17.28
2023-05-16T09:55:28.860Z,17.77
2023-05-16T09:58:19.000Z,18.29
2023-05-16T10:01:08.428Z,18.55
2023-05-16T10:03:56.472Z,18.01
2023-05-16T10:06:46.344Z,16.97
2023-05-16T10:09:34.796Z,16.55
2023-05-16T10:12:30.126Z,17.07
2023-05-16T10:15:21.030Z,17.52
2023-05-16T10:18:13.530Z,17.92
2023-05-16T10:21:23.765Z,18.24
2023-05-16T10:24:18.112Z,17.75
2023-05-16T10:27:06.550Z,16.98
2023-05-16T10:29:57.306Z,17.63
2023-05-16T10:32:48.513Z,18.64
2023-05-16T10:35:38.846Z,19.24
2023-05-16T10:38:29.416Z,19.19
2023-05-16T10:41:19.354Z,20.02
2023-05-16T10:44:16.901Z,21.18
2023-05-16T10:47:06.827Z,21.20
2023-05-16T10:49:55.980Z,20.70
2023-05-16T10:52:44.630Z,20.28
2023-05-16T10:55:33.157Z,19.90
2023-05-16T10:58:42.930Z,19.45
2023-05-16T11:01:34.134Z,19.32
2023-05-16T11:04:22.270Z,19.58
2023-05-16T11:07:12.093Z,20.04
2023-05-16T11:10:16.639Z,20.61
2023-05-16T11:13:11.643Z,21.07
2023-05-16T11:16:29.384Z,21.20
2023-05-16T11:19:42.695Z,20.81
2023-05-16T11:22:33.710Z,20.09
2023-05-16T11:25:41.467Z,19.41
2023-05-16T11:28:30.255Z,18.77
2023-05-16T11:31:18.942Z,18.21
2023-05-16T11:34:06.806Z,17.71
2023-05-16T11:36:56.477Z,17.24
2023-05-16T11:39:45.847Z,16.92
2023-05-16T11:42:46.687Z,16.77
2023-05-16T11:45:35.912Z,16.68
2023-05-16T11:48:35.774Z,16.67
2023-05-16T11:51:25.247Z,16.59
2023-05-16T11:54:13.918Z,16.49
2023-05-16T11:57:02.350Z,16.48
2023-05-16T11:59:52.093Z,16.57
2023-05-16T12:02:41.018Z,17.67
2023-05-16T12:05:31.874Z,18.13
2023-05-16T12:08:22.735Z,17.63
2023-05-16T12:11:11.830Z,17.21
2023-05-16T12:14:02.557Z,16.91
2023-05-16T12:16:52.818Z,16.73
2023-05-16T12:19:41.884Z,16.61
2023-05-16T12:22:29.873Z,16.45
2023-05-16T12:25:36.524Z,16.53
2023-05-16T12:28:24.661Z,17.60
2023-05-16T12:31:31.087Z,17.88
2023-05-16T12:34:21.749Z,17.18
2023-05-16T12:37:10.144Z,16.57
2023-05-16T12:40:04.351Z,16.08
2023-05-16T12:42:54.047Z,15.80
2023-05-16T12:45:43.622Z,16.49
2023-05-16T12:48:35.899Z,17.08
2023-05-16T12:51:24.910Z,16.43
2023-05-16T12:54:15.132Z,15.79
2023-05-16T12:57:10.273Z,15.36
2023-05-16T12:59:58.329Z,16.03
2023-05-16T13:02:48.849Z,16.69
2023-05-16T13:05:37.005Z,16.22
2023-05-16T13:08:25.810Z,15.50
2023-05-16T13:11:14.677Z,15.27
2023-05-16T13:14:03.107Z,16.08
2023-05-16T13:16:51.652Z,16.77
2023-05-16T13:19:39.808Z,16.50
2023-05-16T13:22:27.732Z,15.64
2023-05-16T13:25:16.403Z,14.96
2023-05-16T13:28:05.016Z,14.83
2023-05-16T13:30:54.732Z,15.65
2023-05-16T13:33:42.873Z,16.27
2023-05-16T13:36:41.543Z,15.91
2023-05-16T13:39:30.422Z,15.09
2023-05-16T13:42:18.778Z,14.93
2023-05-16T13:45:09.142Z,15.85
2023-05-16T13:47:57.423Z,16.22
2023-05-16T13:50:47.323Z,15.63
2023-05-16T13:53:36.313Z,14.94
2023-05-16T13:56:24.436Z,15.04
2023-05-16T13:59:16.838Z,15.91
2023-05-16T14:02:14.001Z,16.57
2023-05-16T14:05:02.420Z,16.28
2023-05-16T14:07:50.723Z,15.55
2023-05-16T14:10:39.269Z,15.01
2023-05-16T14:13:27.777Z,15.31
2023-05-16T14:16:21.567Z,16.25
2023-05-16T14:19:09.976Z,16.46
2023-05-16T14:21:58.336Z,15.57
2023-05-16T14:24:46.808Z,14.84
2023-05-16T14:27:38.582Z,14.71
2023-05-16T14:30:27.740Z,15.47
2023-05-16T14:33:16.771Z,16.07
2023-05-16T14:36:08.413Z,15.49
2023-05-16T14:38:57.104Z,14.69
2023-05-16T14:41:45.952Z,14.59
2023-05-16T14:44:34.351Z,15.46
2023-05-16T14:47:22.665Z,16.08
2023-05-16T14:50:11.280Z,16.27
2023-05-16T14:52:59.976Z,15.39
2023-05-16T14:55:50.472Z,14.70
2023-05-16T14:58:38.682Z,15.26
2023-05-16T15:01:28.404Z,16.02
2023-05-16T15:04:18.936Z,16.34
2023-05-16T15:07:07.690Z,15.45
2023-05-16T15:09:56.772Z,14.61
2023-05-16T15:12:44.969Z,14.85
2023-05-16T15:15:34.080Z,15.60
2023-05-16T15:18:22.109Z,15.95
2023-05-16T15:21:10.604Z,15.19
2023-05-16T15:23:59.216Z,14.58
2023-05-16T15:26:47.797Z,14.85
2023-05-16T15:29:35.788Z,15.68
2023-05-16T15:32:26.296Z,15.52
2023-05-16T15:35:14.394Z,14.69
2023-05-16T15:38:02.713Z,14.30
2023-05-16T15:41:09.711Z,14.99
2023-05-16T15:44:01.903Z,15.50
2023-05-16T15:46:51.403Z,15.04
2023-05-16T15:49:39.989Z,14.25
2023-05-16T15:52:29.585Z,14.15
2023-05-16T15:55:18.098Z,14.79
2023-05-16T15:58:06.826Z,15.20
2023-05-16T16:00:56.863Z,15.37
2023-05-16T16:03:45.222Z,14.52
2023-05-16T16:06:33.812Z,13.81
2023-05-16T16:09:24.576Z,14.27
2023-05-16T16:12:15.094Z,15.07
2023-05-16T16:15:06.797Z,15.50
2023-05-16T16:17:54.930Z,14.82
2023-05-16T16:20:43.481Z,13.98
2023-05-16T16:23:32.174Z,14.24
2023-05-16T16:26:20.298Z,15.01
2023-05-16T16:29:10.315Z,15.44
2023-05-16T16:31:59.998Z,14.70
2023-05-16T16:34:49.561Z,13.93
2023-05-16T16:37:37.645Z,14.43
2023-05-16T16:40:26.467Z,14.93
2023-05-16T16:43:18.310Z,14.94
2023-05-16T16:46:08.483Z,14.21
2023-05-16T16:48:59.702Z,13.57
2023-05-16T16:51:48.386Z,14.07
2023-05-16T16:54:36.646Z,14.94
2023-05-16T16:57:25.041Z,15.43
2023-05-16T17:00:14.384Z,14.84
2023-05-16T17:03:05.011Z,14.02
2023-05-16T17:05:53.475Z,13.77
2023-05-16T17:08:42.129Z,14.50
2023-05-16T17:11:31.829Z,15.12
2023-05-16T17:14:21.745Z,14.95
2023-05-16T17:17:10.156Z,14.07
2023-05-16T17:19:59.954Z,13.44
2023-05-16T17:22:48.995Z,13.91
2023-05-16T17:25:37.128Z,14.71
2023-05-16T17:28:26.267Z,14.77
2023-05-16T17:31:14.487Z,13.98
2023-05-16T17:34:02.713Z,13.30
2023-05-16T17:36:51.118Z,13.23
2023-05-16T17:39:39.872Z,14.20
2023-05-16T17:42:28.249Z,14.88
2023-05-16T17:45:16.730Z,14.37
2023-05-16T17:48:05.843Z,13.57
2023-05-16T17:50:54.033Z,13.09
2023-05-16T17:53:42.155Z,13.84
2023-05-16T17:56:31.180Z,14.68
2023-05-16T17:59:22.876Z,14.48
2023-05-16T18:02:16.377Z,13.58
2023-05-16T18:05:07.115Z,12.86
2023-05-16T18:07:55.229Z,12.41
2023-05-16T18:10:51.582Z,13.05
2023-05-16T18:13:41.393Z,13.95
2023-05-16T18:16:34.422Z,13.68
2023-05-16T18:19:26.273Z,12.90
2023-05-16T18:22:15.523Z,12.31
2023-05-16T18:25:10.042Z,11.88
2023-05-16T18:27:58.485Z,12.05
2023-05-16T18:30:47.390Z,13.24
2023-05-16T18:33:40.667Z,13.82
2023-05-16T18:36:29.008Z,13.03
2023-05-16T18:39:19.063Z,12.32
2023-05-16T18:42:08.961Z,11.81
2023-05-16T18:44:59.793Z,11.84
2023-05-16T18:47:49.297Z,13.00
2023-05-16T18:50:37.780Z,13.44
2023-05-16T18:53:27.232Z,12.71
2023-05-16T18:56:18.826Z,12.01
2023-05-16T18:59:07.513Z,11.53
2023-05-16T19:01:56.453Z,11.79
2023-05-16T19:04:45.173Z,12.93
2023-05-16T19:07:37.171Z,13.73
2023-05-16T19:10:25.848Z,13.86
2023-05-16T19:13:14.041Z,12.99
2023-05-16T19:16:02.369Z,12.21
2023-05-16T19:18:50.908Z,11.68
2023-05-16T19:21:40.919Z,11.30
2023-05-16T19:24:29.300Z,11.39
2023-05-16T19:27:17.738Z,12.51
2023-05-16T19:30:07.687Z,13.42
2023-05-16T19:32:59.103Z,13.50
2023-05-16T19:35:48.322Z,12.66
2023-05-16T19:38:37.527Z,11.96
2023-05-16T19:41:36.764Z,11.46
2023-05-16T19:44:26.814Z,11.46
2023-05-16T19:47:17.075Z,12.58
2023-05-16T19:50:07.082Z,13.43
2023-05-16T19:52:55.724Z,13.46
2023-05-16T19:55:44.505Z,12.57
2023-05-16T19:58:33.244Z,11.83
2023-05-16T20:01:28.180Z,11.31
2023-05-16T20:04:16.690Z,11.33
2023-05-16T20:07:05.620Z,12.45
2023-05-16T20:09:56.701Z,13.18
2023-05-16T20:12:46.874Z,12.49
2023-05-16T20:15:36.866Z,11.73
2023-05-16T20:18:26.450Z,11.20
2023-05-16T20:21:16.803Z,11.62
2023-05-16T20:24:06.287Z,12.73
2023-05-16T20:27:05.033Z,13.02
2023-05-16T20:29:54.437Z,12.20
2023-05-16T20:32:43.143Z,11.47
2023-05-16T20:35:31.231Z,11.06
2023-05-16T20:38:19.986Z,11.91
2023-05-16T20:41:07.932Z,12.73
2023-05-16T20:43:56.832Z,12.22
2023-05-16T20:46:45.062Z,11.47
2023-05-16T20:49:37.356Z,10.91
2023-05-16T20:52:28.028Z,10.87
2023-05-16T20:55:17.477Z,11.92
2023-05-16T20:58:06.402Z,12.69
2023-05-16T21:00:54.931Z,12.43
2023-05-16T21:03:44.641Z,11.57
2023-05-16T21:06:33.863Z,10.92
2023-05-16T21:09:21.920Z,10.87
2023-05-16T21:12:11.724Z,11.93
2023-05-16T21:15:00.293Z,12.73
2023-05-16T21:17:48.736Z,13.20
2023-05-16T21:20:37.289Z,13.38
2023-05-16T21:23:25.497Z,12.72
2023-05-16T21:26:15.270Z,11.75
2023-05-16T21:29:03.529Z,11.06
2023-05-16T21:31:52.538Z,10.85
2023-05-16T21:34:42.621Z,11.83
2023-05-16T21:37:30.809Z,12.71
2023-05-16T21:40:24.940Z,13.28
2023-05-16T21:43:13.497Z,13.52
2023-05-16T21:46:01.291Z,12.71
2023-05-16T21:48:49.670Z,11.75
2023-05-16T21:51:39.472Z,11.01
2023-05-16T21:54:27.700Z,10.83
2023-05-16T21:57:15.678Z,11.85
2023-05-16T22:00:06.945Z,12.73
2023-05-16T22:02:56.351Z,13.29
2023-05-16T22:05:48.797Z,13.62
2023-05-16T22:08:37.718Z,13.48
2023-05-16T22:11:26.531Z,12.43
2023-05-16T22:14:14.938Z,11.50
2023-05-16T22:17:03.797Z,11.22
2023-05-16T22:19:51.775Z,12.21
2023-05-16T22:22:41.720Z,13.00
2023-05-16T22:25:30.589Z,13.49
2023-05-16T22:28:18.602Z,13.76
2023-05-16T22:31:07.349Z,13.89
2023-05-16T22:33:55.662Z,13.24
2023-05-16T22:36:44.802Z,12.08
2023-05-16T22:39:33.347Z,11.22
2023-05-16T22:42:21.534Z,10.96
2023-05-16T22:45:10.388Z,11.89
2023-05-16T22:47:58.767Z,12.66
2023-05-16T22:50:47.595Z,13.15
2023-05-16T22:53:35.643Z,13.42
2023-05-16T22:56:23.775Z,13.66
2023-05-16T22:59:12.664Z,13.37
2023-05-16T23:02:01.678Z,12.19
2023-05-16T23:04:49.900Z,11.21
2023-05-16T23:07:39.310Z,10.95
2023-05-16T23:10:28.998Z,11.79
2023-05-16T23:13:18.036Z,12.51
2023-05-16T23:16:06.793Z,12.99
2023-05-16T23:18:55.524Z,13.27
2023-05-16T23:21:44.638Z,13.07
2023-05-16T23:24:32.678Z,11.95
2023-05-16T23:27:21.073Z,11.36
2023-05-16T23:30:11.473Z,12.07
2023-05-16T23:33:01.133Z,12.64
2023-05-16T23:35:50.335Z,13.10
2023-05-16T23:38:39.345Z,13.42
2023-05-16T23:41:27.164Z,13.53
2023-05-16T23:44:15.425Z,12.64
2023-05-16T23:47:05.270Z,11.53
2023-05-16T23:49:54.347Z,11.15
2023-05-16T23:52:43.044Z,11.91
2023-05-16T23:55:31.054Z,12.58
2023-05-16T23:58:19.056Z,12.97
